Time;durP1;ratioP1;P1;durP2;ratioP2;P2;SDS_P1;SDS_P2;PMS_P1;PMS_P2;Temp;Humidity;BMP_temperature;BMP_pressure;BME280_temperature;BME280_humidity;BME280_pressure;Samples;Min_cycle;Max_cycle;Signal;HPM_P1;HPM_P2
2022/04/24 00:02:24;;;;;;;7.63;5.82;;;9.70;99.90;;;;;;5072495;28;20044;-61
2022/04/24 00:04:49;;;;;;;8.07;6.32;;;9.70;99.90;;;;;;5072996;28;20106;-60
2022/04/24 00:07:15;;;;;;;8.60;6.63;;;9.70;99.90;;;;;;5072753;28;20041;-61
2022/04/24 00:09:42;;;;;;;10.20;6.72;;;9.60;99.90;;;;;;5071778;28;20041;-61
2022/04/24 00:12:09;;;;;;;9.13;6.50;;;9.60;99.90;;;;;;5072184;28;20040;-60
2022/04/24 00:14:35;;;;;;;7.82;6.22;;;9.60;99.90;;;;;;5055015;28;20048;-63
2022/04/24 00:17:01;;;;;;;7.28;6.32;;;9.60;99.90;;;;;;5073213;28;20044;-61
2022/04/24 00:19:27;;;;;;;8.30;6.53;;;9.60;99.90;;;;;;5071706;28;20055;-61
2022/04/24 00:21:55;;;;;;;8.68;6.82;;;9.60;99.90;;;;;;5072570;28;20044;-61
2022/04/24 00:24:24;;;;;;;9.68;7.28;;;9.50;99.90;;;;;;5055384;28;20056;-62
2022/04/24 00:26:50;;;;;;;11.57;7.13;;;9.50;99.90;;;;;;5055024;28;20366;-61
2022/04/24 00:29:16;;;;;;;8.60;6.78;;;9.50;99.90;;;;;;5072975;28;20075;-61
2022/04/24 00:31:42;;;;;;;9.95;6.45;;;9.50;99.90;;;;;;5072506;28;20126;-60
2022/04/24 00:34:08;;;;;;;8.52;7.40;;;9.40;99.90;;;;;;5072944;28;20144;-61
2022/04/24 00:36:33;;;;;;;8.63;6.55;;;9.40;99.90;;;;;;5072274;28;20111;-61
2022/04/24 00:38:59;;;;;;;8.98;6.32;;;9.30;99.90;;;;;;5055158;28;20125;-60
2022/04/24 00:41:25;;;;;;;9.68;7.32;;;9.30;99.90;;;;;;5072335;28;20110;-60
2022/04/24 00:43:54;;;;;;;8.27;6.88;;;9.20;99.90;;;;;;5071876;28;20060;-62
2022/04/24 00:46:44;;;;;;;7.88;6.78;;;9.20;99.90;;;;;;5072577;28;20088;-60
2022/04/24 00:49:11;;;;;;;8.88;7.32;;;9.10;99.90;;;;;;5071280;28;20044;-61
2022/04/24 00:51:42;;;;;;;10.05;6.93;;;9.10;99.90;;;;;;5071051;28;20051;-61
2022/04/24 00:54:09;;;;;;;9.75;6.93;;;9.00;99.90;;;;;;5072464;28;20083;-60
2022/04/24 00:56:37;;;;;;;9.23;6.90;;;9.00;99.90;;;;;;5071041;28;20052;-62
2022/04/24 00:59:05;;;;;;;8.82;7.00;;;9.00;99.90;;;;;;5054781;28;20060;-60
2022/04/24 01:01:32;;;;;;;8.43;6.80;;;9.00;99.90;;;;;;5071130;28;20040;-62
2022/04/24 01:04:02;;;;;;;10.77;7.32;;;9.00;99.90;;;;;;5070406;28;20128;-61
2022/04/24 01:06:31;;;;;;;10.15;7.15;;;8.90;99.90;;;;;;5072057;28;20482;-62
2022/04/24 01:09:17;;;;;;;11.25;7.32;;;8.90;99.90;;;;;;5054189;28;20044;-61
2022/04/24 01:11:45;;;;;;;9.80;6.75;;;8.90;99.90;;;;;;5055263;28;20437;-60
2022/04/24 01:14:12;;;;;;;10.48;6.95;;;8.90;99.90;;;;;;5071046;28;20443;-60
2022/04/24 01:16:38;;;;;;;9.65;7.22;;;8.80;99.90;;;;;;5071665;28;20047;-61
2022/04/24 01:19:05;;;;;;;10.25;7.50;;;8.80;99.90;;;;;;5069841;28;20117;-60
2022/04/24 01:21:32;;;;;;;10.18;7.68;;;8.80;99.90;;;;;;5071387;28;20494;-60
2022/04/24 01:23:58;;;;;;;8.30;7.30;;;8.70;99.90;;;;;;5053396;28;20048;-61
2022/04/24 01:26:24;;;;;;;9.15;7.38;;;8.70;99.90;;;;;;5071313;28;20044;-61
2022/04/24 01:28:50;;;;;;;10.13;7.20;;;8.60;99.90;;;;;;5070088;28;20052;-60
2022/04/24 01:31:15;;;;;;;9.05;7.57;;;8.60;99.90;;;;;;5021153;28;20045;-61
2022/04/24 01:33:41;;;;;;;9.63;7.65;;;8.50;99.90;;;;;;5070238;28;20067;-63
2022/04/24 01:36:07;;;;;;;9.73;7.88;;;8.50;99.90;;;;;;5070539;28;20044;-61
2022/04/24 01:38:33;;;;;;;9.30;7.88;;;8.40;99.90;;;;;;5070213;28;20133;-61
2022/04/24 01:40:59;;;;;;;9.77;8.57;;;8.40;99.90;;;;;;5053568;28;20130;-61
2022/04/24 01:43:25;;;;;;;10.02;7.55;;;8.40;99.90;;;;;;5053793;28;20510;-60
2022/04/24 01:45:50;;;;;;;11.02;8.30;;;8.30;99.90;;;;;;5053171;28;20040;-62
2022/04/24 01:48:16;;;;;;;9.70;7.82;;;8.20;99.90;;;;;;5071668;28;20048;-61
2022/04/24 01:50:42;;;;;;;10.35;8.13;;;8.20;99.90;;;;;;5071322;28;20051;-61
2022/04/24 01:53:08;;;;;;;11.50;8.23;;;8.10;99.90;;;;;;5071400;28;20043;-60
2022/04/24 01:55:34;;;;;;;9.50;7.97;;;8.00;99.90;;;;;;5070434;28;20510;-62
2022/04/24 01:57:59;;;;;;;10.48;8.40;;;7.90;99.90;;;;;;5071032;28;20413;-61
2022/04/24 02:00:25;;;;;;;11.23;8.18;;;7.90;99.90;;;;;;5070369;28;20059;-61
2022/04/24 02:02:51;;;;;;;10.13;8.63;;;7.90;99.90;;;;;;5071077;28;20049;-61
2022/04/24 02:05:20;;;;;;;11.00;8.50;;;7.90;99.90;;;;;;5070119;28;20056;-60
2022/04/24 02:07:45;;;;;;;10.68;8.23;;;7.80;99.90;;;;;;5069856;28;20045;-62
2022/04/24 02:10:11;;;;;;;12.00;8.02;;;7.80;99.90;;;;;;5071388;28;20409;-59
2022/04/24 02:12:40;;;;;;;10.75;8.38;;;7.80;99.90;;;;;;5071543;28;20044;-61
2022/04/24 02:15:07;;;;;;;10.73;8.93;;;7.80;99.90;;;;;;5069934;28;20262;-61
2022/04/24 02:17:34;;;;;;;10.18;8.32;;;7.80;99.90;;;;;;5070271;28;20055;-61
2022/04/24 02:20:00;;;;;;;9.07;8.13;;;7.70;99.90;;;;;;5069286;28;20494;-59
2022/04/24 02:22:33;;;;;;;8.85;7.35;;;7.70;99.90;;;;;;5070308;28;20101;-61
2022/04/24 02:24:59;;;;;;;9.90;8.07;;;7.80;99.90;;;;;;5070804;28;20037;-61
2022/04/24 02:27:25;;;;;;;14.48;8.68;;;7.80;99.90;;;;;;5069976;28;20056;-60
2022/04/24 02:29:51;;;;;;;11.77;8.13;;;7.80;99.90;;;;;;5069699;28;20045;-61
2022/04/24 02:32:17;;;;;;;11.18;8.90;;;7.70;99.90;;;;;;5074081;28;20045;-60
2022/04/24 02:34:42;;;;;;;10.75;9.00;;;7.70;99.90;;;;;;5057527;28;20106;-60
2022/04/24 02:37:08;;;;;;;10.93;8.05;;;7.70;99.90;;;;;;5073574;28;20040;-60
2022/04/24 02:39:35;;;;;;;11.95;8.77;;;7.70;99.90;;;;;;5073720;28;20109;-60
2022/04/24 02:42:01;;;;;;;10.57;8.43;;;7.70;99.90;;;;;;5056822;28;20052;-60
2022/04/24 02:44:27;;;;;;;13.45;8.30;;;7.70;99.90;;;;;;5073729;28;20095;-61
2022/04/24 02:46:53;;;;;;;9.07;7.82;;;7.60;99.90;;;;;;5074527;28;20075;-61
2022/04/24 02:49:19;;;;;;;11.95;8.25;;;7.70;99.90;;;;;;5073979;28;20113;-61
2022/04/24 02:51:45;;;;;;;10.55;8.57;;;7.60;99.90;;;;;;5073336;28;20066;-60
2022/04/24 02:54:10;;;;;;;8.68;7.28;;;7.60;99.90;;;;;;5073110;28;20614;-61
2022/04/24 02:56:36;;;;;;;11.48;8.05;;;7.60;99.90;;;;;;5074578;28;20524;-61
2022/04/24 02:59:02;;;;;;;10.05;7.72;;;7.60;99.90;;;;;;5040008;28;20438;-61
2022/04/24 03:01:30;;;;;;;11.50;8.88;;;7.60;99.90;;;;;;5056814;28;20044;-60
2022/04/24 03:03:56;;;;;;;11.40;7.75;;;7.60;99.90;;;;;;5073025;28;20478;-59
2022/04/24 03:06:22;;;;;;;12.60;8.43;;;7.60;99.90;;;;;;5074365;28;20044;-60
2022/04/24 03:08:48;;;;;;;9.95;7.75;;;7.50;99.90;;;;;;5074468;28;20048;-60
2022/04/24 03:11:15;;;;;;;9.65;7.55;;;7.50;99.90;;;;;;5072805;28;20500;-60
2022/04/24 03:13:41;;;;;;;10.77;7.57;;;7.50;99.90;;;;;;5056818;28;20394;-61
2022/04/24 03:16:07;;;;;;;11.73;8.65;;;7.50;99.90;;;;;;5073946;28;20036;-61
2022/04/24 03:18:32;;;;;;;9.30;7.43;;;7.40;99.90;;;;;;5074321;28;20386;-63
2022/04/24 03:20:58;;;;;;;10.10;7.65;;;7.40;99.90;;;;;;5072859;28;20482;-59
2022/04/24 03:23:24;;;;;;;9.30;6.72;;;7.40;99.90;;;;;;5074080;28;20497;-60
2022/04/24 03:25:50;;;;;;;10.43;7.50;;;7.50;99.90;;;;;;5074182;28;20114;-59
2022/04/24 03:28:17;;;;;;;11.52;7.20;;;7.50;99.90;;;;;;5072530;28;20056;-61
2022/04/24 03:30:43;;;;;;;8.80;7.18;;;7.40;99.90;;;;;;5074194;28;20049;-62
2022/04/24 03:33:09;;;;;;;10.23;7.93;;;7.40;99.90;;;;;;5072242;28;20120;-61
2022/04/24 03:35:35;;;;;;;8.63;7.15;;;7.40;99.90;;;;;;5073926;28;20044;-61
2022/04/24 03:38:01;;;;;;;10.95;8.30;;;7.40;99.90;;;;;;5072513;28;20044;-61
2022/04/24 03:40:27;;;;;;;10.20;7.57;;;7.40;99.90;;;;;;5073961;28;20046;-60
2022/04/24 03:42:52;;;;;;;9.70;7.13;;;7.40;99.90;;;;;;5071372;28;20103;-60
2022/04/24 03:45:18;;;;;;;11.38;7.70;;;7.40;99.90;;;;;;5073410;28;20044;-60
2022/04/24 03:47:44;;;;;;;9.65;7.22;;;7.40;99.90;;;;;;5072567;28;20052;-60
2022/04/24 03:50:10;;;;;;;9.57;7.40;;;7.40;99.90;;;;;;5072445;28;20044;-61
2022/04/24 03:52:36;;;;;;;10.55;6.93;;;7.30;99.90;;;;;;5073725;28;20041;-60
2022/04/24 03:55:02;;;;;;;10.27;7.15;;;7.30;99.90;;;;;;5072328;28;20049;-61
2022/04/24 03:57:29;;;;;;;12.32;7.82;;;7.30;99.90;;;;;;5055800;28;20067;-61
2022/04/24 03:59:55;;;;;;;9.57;7.68;;;7.20;99.90;;;;;;5055837;28;20052;-61
2022/04/24 04:02:21;;;;;;;10.85;7.40;;;7.20;99.90;;;;;;5072042;28;20539;-61
2022/04/24 04:04:47;;;;;;;10.40;7.90;;;7.50;99.90;;;;;;5073424;28;20049;-60
2022/04/24 04:07:13;;;;;;;12.70;7.50;;;7.20;99.90;;;;;;5072909;28;20127;-61
2022/04/24 04:09:39;;;;;;;8.95;7.10;;;7.20;99.90;;;;;;5072248;28;20052;-61
2022/04/24 04:12:06;;;;;;;9.25;7.75;;;7.20;99.90;;;;;;5071558;28;20405;-60
2022/04/24 04:14:32;;;;;;;11.20;8.10;;;7.20;99.90;;;;;;5071780;28;20060;-61
2022/04/24 04:16:58;;;;;;;12.32;7.85;;;7.10;99.90;;;;;;5071973;28;20320;-61
2022/04/24 04:19:23;;;;;;;9.57;7.25;;;7.10;99.90;;;;;;5071530;28;20078;-60
2022/04/24 04:21:49;;;;;;;11.45;8.52;;;7.10;99.90;;;;;;5071664;28;20049;-60
2022/04/24 04:24:15;;;;;;;11.32;8.65;;;7.00;99.90;;;;;;5071372;28;20098;-61
2022/04/24 04:26:41;;;;;;;11.95;7.72;;;7.00;99.90;;;;;;5072766;28;20114;-60
2022/04/24 04:29:07;;;;;;;9.70;7.75;;;7.00;99.90;;;;;;5071154;28;20371;-61
2022/04/24 04:31:33;;;;;;;10.25;7.60;;;7.00;99.90;;;;;;5071918;28;20044;-61
2022/04/24 04:33:59;;;;;;;12.93;8.10;;;7.00;99.90;;;;;;5071769;28;20063;-60
2022/04/24 04:36:25;;;;;;;12.30;8.70;;;7.00;99.90;;;;;;5054458;28;20106;-62
2022/04/24 04:38:50;;;;;;;11.82;8.48;;;7.00;99.90;;;;;;5072739;28;20131;-61
2022/04/24 04:41:16;;;;;;;14.18;9.02;;;7.00;99.90;;;;;;5072375;28;20051;-60
2022/04/24 04:43:42;;;;;;;13.18;8.55;;;7.00;99.90;;;;;;5071203;28;20109;-61
2022/04/24 04:46:07;;;;;;;12.30;8.27;;;7.00;99.90;;;;;;5054410;28;20048;-60
2022/04/24 04:48:34;;;;;;;13.57;9.70;;;7.10;99.90;;;;;;5072618;28;20052;-60
2022/04/24 04:51:00;;;;;;;12.00;8.48;;;7.10;99.90;;;;;;5071276;28;20131;-60
2022/04/24 04:53:26;;;;;;;12.57;8.73;;;7.10;99.90;;;;;;5071940;28;20041;-60
2022/04/24 04:55:51;;;;;;;12.07;8.52;;;7.10;99.90;;;;;;5071666;28;20393;-61
2022/04/24 04:58:17;;;;;;;12.45;8.77;;;7.10;99.90;;;;;;5054237;28;20048;-61
2022/04/24 05:00:43;;;;;;;12.57;9.13;;;7.20;99.90;;;;;;5072340;28;20044;-60
2022/04/24 05:03:09;;;;;;;12.48;8.73;;;7.20;99.90;;;;;;5071686;28;20074;-61
2022/04/24 05:05:35;;;;;;;10.75;8.93;;;7.20;99.90;;;;;;5072101;28;20084;-60
2022/04/24 05:08:01;;;;;;;11.52;8.35;;;7.20;99.90;;;;;;5070742;28;20059;-60
2022/04/24 05:10:27;;;;;;;11.10;8.40;;;7.20;99.90;;;;;;5070521;28;20040;-61
2022/04/24 05:12:52;;;;;;;11.90;8.85;;;7.30;99.90;;;;;;5071109;28;20052;-61
2022/04/24 05:15:21;;;;;;;12.48;9.10;;;7.30;99.90;;;;;;5037330;28;20107;-60
2022/04/24 05:17:47;;;;;;;12.02;8.73;;;7.30;99.90;;;;;;5070615;28;20041;-60
2022/04/24 05:20:13;;;;;;;14.82;9.57;;;7.40;99.90;;;;;;5053804;28;20529;-61
2022/04/24 05:22:40;;;;;;;17.50;8.75;;;7.40;99.90;;;;;;5072056;28;20075;-61
2022/04/24 05:25:09;;;;;;;11.80;9.20;;;7.50;99.90;;;;;;5054342;28;20102;-61
2022/04/24 05:27:38;;;;;;;14.13;10.05;;;7.50;99.90;;;;;;5071821;28;20094;-60
2022/04/24 05:30:07;;;;;;;14.75;8.90;;;7.60;99.90;;;;;;5070585;28;20056;-60
2022/04/24 05:32:46;;;;;;;12.55;8.70;;;7.70;99.90;;;;;;5070118;28;20056;-60
2022/04/24 05:35:13;;;;;;;14.88;9.60;;;7.70;99.90;;;;;;5070132;28;20574;-60
2022/04/24 05:37:40;;;;;;;12.85;8.70;;;7.90;99.90;;;;;;5071229;28;20475;-59
2022/04/24 05:40:06;;;;;;;10.73;8.32;;;8.00;99.90;;;;;;5070397;28;20059;-60
2022/04/24 05:42:33;;;;;;;10.95;7.72;;;8.10;99.90;;;;;;5069351;28;20091;-61
2022/04/24 05:45:00;;;;;;;10.27;8.07;;;8.30;99.90;;;;;;5071261;28;20063;-61
2022/04/24 05:47:27;;;;;;;11.15;8.02;;;8.80;99.90;;;;;;5052872;28;20041;-61
2022/04/24 05:49:52;;;;;;;10.32;7.80;;;9.40;99.90;;;;;;5070314;28;20501;-61
2022/04/24 05:52:18;;;;;;;10.40;7.60;;;10.10;99.90;;;;;;5070990;28;20044;-61
2022/04/24 05:54:44;;;;;;;10.82;7.07;;;10.90;99.90;;;;;;5070317;28;20051;-59
2022/04/24 05:57:09;;;;;;;9.88;7.30;;;11.60;99.90;;;;;;5071444;28;20046;-61
2022/04/24 05:59:36;;;;;;;10.38;7.05;;;12.10;99.90;;;;;;5069730;28;20406;-60
2022/04/24 06:02:02;;;;;;;9.88;6.43;;;12.60;99.90;;;;;;5071323;28;20060;-61
2022/04/24 06:04:28;;;;;;;10.43;6.60;;;13.20;99.90;;;;;;5052635;28;20048;-61
2022/04/24 06:06:53;;;;;;;8.27;5.90;;;13.50;99.90;;;;;;5070824;28;20079;-61
2022/04/24 06:09:19;;;;;;;8.68;5.82;;;13.60;99.90;;;;;;5069443;28;20330;-61
2022/04/24 06:11:45;;;;;;;7.57;5.45;;;13.90;99.90;;;;;;5069998;28;20056;-61
2022/04/24 06:14:12;;;;;;;8.13;5.55;;;14.10;99.90;;;;;;5071201;28;20118;-61
2022/04/24 06:16:37;;;;;;;8.30;5.63;;;14.20;99.90;;;;;;5069676;28;20041;-61
2022/04/24 06:19:03;;;;;;;7.30;5.10;;;14.10;99.90;;;;;;5036405;28;20158;-62
2022/04/24 06:21:29;;;;;;;7.32;4.95;;;14.40;99.90;;;;;;5053027;28;20125;-60
2022/04/24 06:23:54;;;;;;;8.80;4.95;;;14.40;99.90;;;;;;5071491;28;20288;-62
2022/04/24 06:26:20;;;;;;;7.00;4.28;;;14.50;99.90;;;;;;5070397;28;20045;-62
2022/04/24 06:28:46;;;;;;;6.22;4.70;;;14.60;98.80;;;;;;5053133;28;20159;-61
2022/04/24 06:31:12;;;;;;;8.38;4.53;;;14.70;99.40;;;;;;5070999;28;20136;-61
2022/04/24 06:33:37;;;;;;;8.48;4.13;;;14.50;98.60;;;;;;5069497;28;20478;-61
2022/04/24 06:36:03;;;;;;;6.35;3.75;;;14.60;99.20;;;;;;5053461;28;20202;-61
2022/04/24 06:38:29;;;;;;;6.28;3.45;;;14.80;99.30;;;;;;5070326;28;20048;-62
2022/04/24 06:40:55;;;;;;;7.10;3.88;;;14.90;97.60;;;;;;5069743;28;20048;-61
2022/04/24 06:43:20;;;;;;;6.45;3.72;;;15.00;97.10;;;;;;5068823;28;20111;-62
2022/04/24 06:45:46;;;;;;;5.88;3.45;;;15.30;98.40;;;;;;5070958;28;20490;-62
2022/04/24 06:48:14;;;;;;;5.28;3.35;;;15.50;96.70;;;;;;5070040;28;20132;-62
2022/04/24 06:50:41;;;;;;;7.43;3.25;;;15.60;96.50;;;;;;5070203;28;20114;-61
2022/04/24 06:53:18;;;;;;;4.40;2.85;;;15.60;96.10;;;;;;5053184;28;20083;-62
2022/04/24 06:55:45;;;;;;;5.60;2.95;;;15.90;96.20;;;;;;5069415;28;20056;-61
2022/04/24 06:58:14;;;;;;;6.55;3.35;;;16.20;95.80;;;;;;5070975;28;20467;-61
2022/04/24 07:00:42;;;;;;;4.68;2.75;;;16.70;95.20;;;;;;5070464;28;20052;-61
2022/04/24 07:03:20;;;;;;;4.13;2.72;;;16.90;95.20;;;;;;5070604;28;20056;-61
2022/04/24 07:05:47;;;;;;;5.15;3.00;;;17.10;94.30;;;;;;5070893;28;20074;-61
2022/04/24 07:08:13;;;;;;;4.80;2.85;;;17.40;93.50;;;;;;5069367;28;20398;-61
2022/04/24 07:10:39;;;;;;;3.53;2.53;;;17.70;92.60;;;;;;5070354;28;20048;-62
2022/04/24 07:13:05;;;;;;;5.85;2.97;;;17.70;92.50;;;;;;5069757;28;20040;-61
2022/04/24 07:15:34;;;;;;;6.10;2.92;;;17.80;91.50;;;;;;5069033;28;20048;-62
2022/04/24 07:18:00;;;;;;;5.82;2.55;;;18.00;91.90;;;;;;5054659;28;20056;-60
2022/04/24 07:20:27;;;;;;;5.40;2.80;;;17.90;91.20;;;;;;5055729;28;20127;-61
2022/04/24 07:23:01;;;;;;;5.60;2.88;;;18.00;90.60;;;;;;5074260;28;20048;-63
2022/04/24 07:25:31;;;;;;;4.65;2.65;;;17.90;89.40;;;;;;5056363;28;20079;-62
2022/04/24 07:27:57;;;;;;;5.60;2.72;;;18.20;90.90;;;;;;5056437;28;20060;-61
2022/04/24 07:30:23;;;;;;;5.07;2.42;;;18.50;89.90;;;;;;5072798;28;20182;-64
2022/04/24 07:32:51;;;;;;;4.57;2.53;;;18.80;89.90;;;;;;5073607;28;20124;-61
2022/04/24 07:35:21;;;;;;;5.40;2.50;;;18.90;87.60;;;;;;5072500;28;20494;-60
2022/04/24 07:37:47;;;;;;;5.80;2.70;;;19.10;88.50;;;;;;5073123;28;20435;-60
2022/04/24 07:40:15;;;;;;;5.65;2.90;;;19.40;86.60;;;;;;5073768;28;20037;-60
2022/04/24 07:42:48;;;;;;;5.85;2.80;;;19.60;85.30;;;;;;5071852;28;20063;-60
2022/04/24 07:45:22;;;;;;;4.93;2.63;;;19.60;85.20;;;;;;5055806;28;20045;-61
2022/04/24 07:47:49;;;;;;;5.35;2.72;;;19.60;82.90;;;;;;5072190;28;20549;-59
2022/04/24 07:50:15;;;;;;;4.68;2.70;;;19.40;83.00;;;;;;5072546;28;20505;-61
2022/04/24 07:52:42;;;;;;;5.72;2.50;;;19.40;84.90;;;;;;5055538;28;20048;-61
2022/04/24 07:55:10;;;;;;;5.53;2.90;;;19.60;83.40;;;;;;5039424;28;20075;-61
2022/04/24 07:57:36;;;;;;;6.13;3.25;;;19.70;82.80;;;;;;5073289;28;20048;-60
2022/04/24 08:00:02;;;;;;;6.13;3.15;;;19.90;83.90;;;;;;5073603;28;20136;-60
2022/04/24 08:02:28;;;;;;;4.82;2.97;;;20.00;83.20;;;;;;5073251;28;20476;-61
2022/04/24 08:04:54;;;;;;;4.80;3.00;;;20.30;84.30;;;;;;5071980;28;20132;-60
2022/04/24 08:07:22;;;;;;;4.68;2.90;;;20.40;80.80;;;;;;5071950;28;20056;-60
2022/04/24 08:09:51;;;;;;;5.75;3.17;;;20.30;80.70;;;;;;5072528;28;20052;-61
2022/04/24 08:12:17;;;;;;;6.15;3.20;;;20.60;82.00;;;;;;5055438;28;20052;-61
2022/04/24 08:14:42;;;;;;;6.28;3.08;;;20.60;79.90;;;;;;5071556;28;20517;-61
2022/04/24 08:17:08;;;;;;;6.85;3.30;;;20.60;79.40;;;;;;5071969;28;20060;-60
2022/04/24 08:19:34;;;;;;;6.18;3.10;;;20.80;81.20;;;;;;5072499;28;20090;-61
2022/04/24 08:22:00;;;;;;;4.47;2.90;;;21.30;79.60;;;;;;5072781;28;20048;-60
2022/04/24 08:24:25;;;;;;;5.93;2.90;;;21.10;75.70;;;;;;5054921;28;20076;-63
2022/04/24 08:26:51;;;;;;;5.35;2.90;;;21.00;77.10;;;;;;5070676;28;20036;-63
2022/04/24 08:29:17;;;;;;;4.05;2.65;;;21.00;77.50;;;;;;5072121;28;20078;-62
2022/04/24 08:31:42;;;;;;;6.05;2.75;;;21.30;76.40;;;;;;5071247;28;20099;-63
2022/04/24 08:34:08;;;;;;;8.23;2.70;;;21.40;75.20;;;;;;5072746;28;20049;-63
2022/04/24 08:36:34;;;;;;;6.45;3.00;;;21.30;75.70;;;;;;5071097;28;20040;-64
2022/04/24 08:39:00;;;;;;;6.70;3.25;;;21.10;76.40;;;;;;5072578;28;20045;-64
2022/04/24 08:41:30;;;;;;;4.00;2.72;;;20.80;76.00;;;;;;5055035;28;20048;-63
2022/04/24 08:43:56;;;;;;;5.95;3.42;;;20.50;76.70;;;;;;5071905;28;20053;-63
2022/04/24 08:46:23;;;;;;;8.52;3.42;;;20.30;76.20;;;;;;5054657;28;20089;-64
2022/04/24 08:48:49;;;;;;;7.47;3.60;;;20.00;77.20;;;;;;5054426;28;20053;-61
2022/04/24 08:51:17;;;;;;;6.00;3.20;;;19.90;78.00;;;;;;5071068;28;20139;-62
2022/04/24 08:53:43;;;;;;;7.47;3.33;;;20.10;77.90;;;;;;5071763;28;20482;-62
2022/04/24 08:56:08;;;;;;;5.20;3.20;;;20.10;77.10;;;;;;5070776;28;20098;-62
2022/04/24 08:58:34;;;;;;;5.50;3.20;;;20.30;77.20;;;;;;5072014;28;20486;-63
2022/04/24 09:01:00;;;;;;;5.90;3.33;;;20.40;77.00;;;;;;5071816;28;20075;-63
2022/04/24 09:03:25;;;;;;;5.47;3.20;;;20.40;77.10;;;;;;5070599;28;20044;-62
2022/04/24 09:05:51;;;;;;;7.28;2.85;;;20.50;75.80;;;;;;5071389;28;20428;-64
2022/04/24 09:08:21;;;;;;;6.80;3.40;;;20.50;75.30;;;;;;5070774;28;20041;-61
2022/04/24 09:10:52;;;;;;;5.32;3.30;;;20.50;75.80;;;;;;5071339;28;20047;-62
2022/04/24 09:14:14;;;;;;;5.80;3.17;;;20.40;75.00;;;;;;5072035;28;20044;-62
2022/04/24 09:16:18;;;;;;;5.30;2.80;;;20.30;75.80;;;;;;5056456;28;20099;-63
2022/04/24 09:18:46;;;;;;;5.72;3.08;;;20.50;75.90;;;;;;5036953;28;20491;-62
2022/04/24 09:21:13;;;;;;;5.18;2.80;;;20.40;75.40;;;;;;5071608;28;20044;-63
2022/04/24 09:23:42;;;;;;;7.20;3.25;;;20.40;74.90;;;;;;5036959;28;20510;-65
2022/04/24 09:26:18;;;;;;;4.80;2.80;;;20.20;75.00;;;;;;5070462;28;20553;-63
2022/04/24 09:28:44;;;;;;;4.63;2.55;;;19.90;74.10;;;;;;5071478;28;20040;-62
2022/04/24 09:31:10;;;;;;;4.47;2.88;;;19.90;74.70;;;;;;5071804;28;20048;-63
2022/04/24 09:33:42;;;;;;;4.95;2.72;;;19.80;74.10;;;;;;5054115;28;20114;-62
2022/04/24 09:36:09;;;;;;;6.38;2.58;;;19.30;75.30;;;;;;5070702;28;20059;-62
2022/04/24 09:38:45;;;;;;;6.65;2.72;;;18.90;75.90;;;;;;5070113;28;20456;-62
2022/04/24 09:41:22;;;;;;;5.47;2.70;;;18.50;75.70;;;;;;5071058;28;20051;-62
2022/04/24 09:43:49;;;;;;;6.22;2.60;;;18.10;76.20;;;;;;5052792;28;20052;-63
2022/04/24 09:46:26;;;;;;;4.78;2.70;;;17.80;75.90;;;;;;5071548;28;20468;-62
2022/04/24 09:48:52;;;;;;;6.82;2.83;;;17.60;76.30;;;;;;5069473;28;20124;-62
2022/04/24 09:51:22;;;;;;;4.82;2.70;;;17.30;76.50;;;;;;5071458;28;20079;-61
2022/04/24 09:53:48;;;;;;;5.53;2.90;;;17.10;79.20;;;;;;5069712;28;20066;-61
2022/04/24 09:56:18;;;;;;;5.57;2.97;;;17.00;79.50;;;;;;5070227;28;20051;-62
2022/04/24 09:58:45;;;;;;;10.32;3.22;;;16.80;78.90;;;;;;5053237;28;20048;-64
2022/04/24 10:01:12;;;;;;;4.65;2.80;;;16.70;79.10;;;;;;5070057;28;20053;-62
2022/04/24 10:03:38;;;;;;;4.35;2.95;;;16.70;79.80;;;;;;5070009;28;20489;-61
2022/04/24 10:06:07;;;;;;;7.90;3.33;;;16.60;82.10;;;;;;5069657;28;20029;-63
2022/04/24 10:08:34;;;;;;;6.15;3.33;;;16.60;82.70;;;;;;5069492;28;20113;-63
2022/04/24 10:11:06;;;;;;;4.70;2.70;;;16.70;82.70;;;;;;5069753;28;20071;-62
2022/04/24 10:13:39;;;;;;;4.88;2.85;;;17.00;82.80;;;;;;5070607;28;20053;-63
2022/04/24 10:16:15;;;;;;;4.90;3.10;;;17.10;82.20;;;;;;5053544;28;20044;-62
2022/04/24 10:18:52;;;;;;;5.03;2.97;;;17.00;82.60;;;;;;5071061;28;20052;-62
2022/04/24 10:21:37;;;;;;;5.63;3.10;;;16.90;82.70;;;;;;5071310;28;20137;-61
2022/04/24 10:24:13;;;;;;;5.00;2.70;;;16.90;83.90;;;;;;5069047;28;20049;-62
2022/04/24 10:26:39;;;;;;;4.72;2.78;;;16.90;84.60;;;;;;5070794;28;20076;-62
2022/04/24 10:29:10;;;;;;;4.72;2.83;;;17.00;83.70;;;;;;5070439;28;20105;-62
2022/04/24 10:31:47;;;;;;;4.53;2.63;;;17.00;82.30;;;;;;5053288;28;20044;-62
2022/04/24 10:34:14;;;;;;;4.65;2.75;;;16.90;81.90;;;;;;5068976;28;20044;-61
2022/04/24 10:37:02;;;;;;;5.88;2.58;;;17.00;81.30;;;;;;5053133;28;20060;-62
2022/04/24 10:39:33;;;;;;;5.10;2.42;;;17.00;80.60;;;;;;5070955;28;20054;-63
2022/04/24 10:42:12;;;;;;;5.68;2.22;;;16.90;80.40;;;;;;5069121;28;20047;-63
2022/04/24 10:44:54;;;;;;;6.97;2.35;;;16.80;79.70;;;;;;5070649;28;20059;-63
2022/04/24 10:47:20;;;;;;;4.78;2.60;;;16.70;81.00;;;;;;5070798;28;20045;-61
2022/04/24 10:49:45;;;;;;;4.63;2.38;;;16.80;82.00;;;;;;5070572;28;20044;-63
2022/04/24 10:52:11;;;;;;;5.68;2.55;;;16.80;82.60;;;;;;5072062;28;20486;-64
2022/04/24 10:54:39;;;;;;;6.68;3.08;;;16.80;83.90;;;;;;5072477;28;20045;-62
2022/04/24 10:57:20;;;;;;;4.15;2.80;;;16.90;84.10;;;;;;5056292;28;20084;-62
2022/04/24 10:59:52;;;;;;;6.38;2.95;;;17.00;83.10;;;;;;5074221;28;20051;-63
2022/04/24 11:02:22;;;;;;;4.80;2.92;;;16.80;83.70;;;;;;5072300;28;20118;-64
2022/04/24 11:05:00;;;;;;;5.43;2.80;;;16.70;83.40;;;;;;5073741;28;20056;-62
2022/04/24 11:07:26;;;;;;;5.38;3.40;;;16.50;83.90;;;;;;5073352;28;20386;-63
2022/04/24 11:10:01;;;;;;;5.03;2.58;;;16.30;84.30;;;;;;5072611;28;20040;-64
2022/04/24 11:12:32;;;;;;;5.28;3.40;;;16.30;84.70;;;;;;5073750;28;20383;-63
2022/04/24 11:15:16;;;;;;;8.20;3.03;;;16.30;85.30;;;;;;5073752;28;20109;-62
2022/04/24 11:17:42;;;;;;;6.97;3.37;;;16.30;85.70;;;;;;5072922;28;20051;-62
2022/04/24 11:20:13;;;;;;;7.20;3.40;;;16.30;85.80;;;;;;5072386;28;20431;-63
2022/04/24 11:22:50;;;;;;;4.93;3.30;;;16.30;84.40;;;;;;5072778;28;20098;-63
2022/04/24 11:25:18;;;;;;;9.68;3.40;;;16.10;85.40;;;;;;5072437;28;20072;-63
2022/04/24 11:27:45;;;;;;;7.72;3.53;;;16.10;85.50;;;;;;5072628;28;20055;-66
2022/04/24 11:30:18;;;;;;;8.23;3.75;;;16.20;85.80;;;;;;5072981;28;20107;-63
2022/04/24 11:33:05;;;;;;;5.50;3.80;;;16.20;87.00;;;;;;5073768;28;20158;-64
2022/04/24 11:35:35;;;;;;;5.50;3.55;;;16.20;86.90;;;;;;5073868;28;20094;-63
2022/04/24 11:38:01;;;;;;;5.97;3.53;;;16.20;87.50;;;;;;5072224;28;20044;-64
2022/04/24 11:40:28;;;;;;;6.68;3.97;;;16.20;87.00;;;;;;5056012;28;20359;-63
2022/04/24 11:43:03;;;;;;;9.73;4.10;;;16.10;87.30;;;;;;5072559;28;20056;-63
2022/04/24 11:51:06;;;;;;;5.25;3.80;;;15.80;88.30;;;;;;5073122;28;20052;-62
2022/04/24 11:53:33;;;;;;;5.78;3.88;;;15.80;88.50;;;;;;5039608;28;20053;-62
2022/04/24 11:56:01;;;;;;;5.75;3.70;;;15.80;87.80;;;;;;5039398;28;20065;-64
2022/04/24 11:58:38;;;;;;;11.30;4.22;;;15.90;89.00;;;;;;5072492;28;20048;-63
2022/04/24 12:01:09;;;;;;;7.85;3.75;;;15.80;89.00;;;;;;5072359;28;20045;-64
2022/04/24 12:03:37;;;;;;;7.78;4.30;;;15.80;88.60;;;;;;5055652;28;20045;-63
2022/04/24 12:06:06;;;;;;;5.75;3.50;;;15.70;89.20;;;;;;5055483;28;20099;-63
2022/04/24 12:08:48;;;;;;;7.28;3.90;;;15.70;89.90;;;;;;5071998;28;20055;-62
2022/04/24 12:11:25;;;;;;;6.57;4.13;;;15.70;90.10;;;;;;5071774;28;20049;-62
2022/04/24 12:14:11;;;;;;;7.88;4.20;;;15.70;90.60;;;;;;5073367;28;20048;-63
2022/04/24 12:16:46;;;;;;;9.95;3.38;;;15.70;89.10;;;;;;5072214;28;20055;-63
2022/04/24 12:19:18;;;;;;;6.30;3.50;;;15.60;88.50;;;;;;5072893;28;20052;-62
2022/04/24 12:21:51;;;;;;;6.85;3.80;;;15.60;89.20;;;;;;5073306;28;20109;-63
2022/04/24 12:24:18;;;;;;;8.82;4.22;;;15.60;89.90;;;;;;5071873;28;20055;-63
2022/04/24 12:26:53;;;;;;;9.35;3.65;;;15.60;90.40;;;;;;5073078;28;20040;-65
2022/04/24 12:29:19;;;;;;;8.65;4.30;;;15.50;90.30;;;;;;5071540;28;20053;-63
2022/04/24 12:31:47;;;;;;;8.85;4.15;;;15.50;91.30;;;;;;5055074;28;20059;-64
2022/04/24 12:34:14;;;;;;;7.50;4.07;;;15.50;91.30;;;;;;5072416;28;20052;-63
2022/04/24 12:36:52;;;;;;;15.35;4.25;;;15.60;91.80;;;;;;5071898;28;20379;-63
2022/04/24 12:39:25;;;;;;;6.25;4.03;;;15.70;91.30;;;;;;5071380;28;20047;-63
2022/04/24 12:41:51;;;;;;;6.97;4.10;;;15.70;90.90;;;;;;5072936;28;20060;-63
2022/04/24 12:44:18;;;;;;;8.27;4.03;;;15.60;91.50;;;;;;5072264;28;20056;-64
2022/04/24 12:46:46;;;;;;;6.75;4.10;;;15.60;91.60;;;;;;5054436;28;20178;-65
2022/04/24 12:49:13;;;;;;;8.63;3.95;;;15.60;90.90;;;;;;5070995;28;20048;-63
2022/04/24 12:51:39;;;;;;;6.30;3.78;;;15.50;91.40;;;;;;5072653;28;20135;-62
2022/04/24 12:54:05;;;;;;;5.18;3.60;;;15.50;91.40;;;;;;5070826;28;20551;-64
2022/04/24 12:56:32;;;;;;;8.65;3.95;;;15.50;91.10;;;;;;5054498;28;20040;-63
2022/04/24 12:58:58;;;;;;;10.77;3.95;;;15.20;91.50;;;;;;5072362;28;20051;-62